Time;durP1;ratioP1;P1;durP2;ratioP2;P2;SDS_P1;SDS_P2;PMS_P1;PMS_P2;Temp;Humidity;BMP_temperature;BMP_pressure;BME280_temperature;BME280_humidity;BME280_pressure;Samples;Min_cycle;Max_cycle;Signal;HPM_P1;HPM_P2
2022/01/28 00:01:57;;;;;;;268.67;119.50;;;;;;;;;;4888687;29;20049;-85
2022/01/28 00:04:43;;;;;;;266.40;119.18;;;;;;;;;;4889729;29;20062;-83
2022/01/28 00:07:28;;;;;;;263.80;127.55;;;;;;;;;;4881499;29;20045;-82
2022/01/28 00:10:14;;;;;;;284.92;137.00;;;;;;;;;;4882501;29;20056;-83
2022/01/28 00:19:39;;;;;;;301.00;140.13;;;;;;;;;;4882599;29;20045;-84
2022/01/28 00:40:33;;;;;;;227.60;103.75;;;;;;;;;;4882183;29;20373;-83
2022/01/28 00:43:19;;;;;;;198.38;86.07;;;;;;;;;;4882023;29;20041;-84
2022/01/28 00:46:05;;;;;;;204.10;96.65;;;;;;;;;;4886329;29;20048;-84
2022/01/28 00:48:50;;;;;;;233.50;109.65;;;;;;;;;;4887211;29;20049;-83
2022/01/28 00:51:35;;;;;;;239.43;109.25;;;;;;;;;;4881700;29;20045;-83
2022/01/28 00:54:20;;;;;;;227.55;105.47;;;;;;;;;;4887784;29;20461;-84
2022/01/28 00:57:05;;;;;;;223.35;101.00;;;;;;;;;;4881763;29;20045;-85
2022/01/28 00:59:51;;;;;;;225.05;105.00;;;;;;;;;;4881801;29;20057;-83
2022/01/28 01:02:36;;;;;;;233.70;103.63;;;;;;;;;;4881435;29;20048;-83
2022/01/28 01:05:22;;;;;;;234.88;100.35;;;;;;;;;;4881578;29;20049;-86
2022/01/28 01:08:08;;;;;;;242.40;103.13;;;;;;;;;;4886981;29;20053;-86
2022/01/28 01:10:54;;;;;;;239.93;103.38;;;;;;;;;;4881004;29;20378;-84
2022/01/28 01:13:41;;;;;;;317.85;135.07;;;;;;;;;;4881904;29;20049;-85
2022/01/28 01:16:32;;;;;;;242.20;103.10;;;;;;;;;;4881284;29;20401;-86
2022/01/28 01:19:22;;;;;;;286.42;121.22;;;;;;;;;;4886643;29;20489;-84
2022/01/28 01:22:09;;;;;;;289.92;124.00;;;;;;;;;;4881968;29;20369;-85
2022/01/28 01:25:03;;;;;;;269.50;111.13;;;;;;;;;;4886616;29;20045;-85
2022/01/28 01:27:53;;;;;;;253.40;110.90;;;;;;;;;;4887819;29;20049;-83
2022/01/28 01:30:40;;;;;;;236.32;101.72;;;;;;;;;;4889702;29;20362;-84
2022/01/28 01:33:28;;;;;;;171.45;73.53;;;;;;;;;;4884319;29;20057;-80
2022/01/28 01:36:14;;;;;;;107.95;43.42;;;;;;;;;;4890516;29;20049;-80
2022/01/28 01:39:00;;;;;;;107.20;42.17;;;;;;;;;;4888715;29;20049;-84
2022/01/28 01:41:52;;;;;;;146.63;53.65;;;;;;;;;;4892384;29;20052;-86
2022/01/28 01:45:16;;;;;;;153.25;54.42;;;;;;;;;;4887035;29;20468;-82
2022/01/28 01:53:51;;;;;;;124.10;49.92;;;;;;;;;;4880828;29;20044;-84
2022/01/28 01:56:39;;;;;;;132.20;51.63;;;;;;;;;;4881234;29;20485;-84
2022/01/28 01:59:25;;;;;;;183.55;68.15;;;;;;;;;;4880540;29;20041;-83
2022/01/28 02:02:11;;;;;;;161.80;61.92;;;;;;;;;;4872772;29;20044;-82
2022/01/28 02:04:57;;;;;;;185.55;75.30;;;;;;;;;;4886857;29;20393;-84
2022/01/28 02:07:44;;;;;;;187.20;76.53;;;;;;;;;;4880428;29;20049;-84
2022/01/28 02:10:29;;;;;;;225.38;91.47;;;;;;;;;;4880408;29;20049;-83
2022/01/28 02:13:14;;;;;;;231.35;97.57;;;;;;;;;;4880106;29;20045;-85
2022/01/28 02:16:01;;;;;;;228.18;94.97;;;;;;;;;;4880640;29;20049;-83
2022/01/28 02:18:46;;;;;;;188.07;81.40;;;;;;;;;;4880449;29;20049;-85
2022/01/28 02:21:42;;;;;;;175.30;68.68;;;;;;;;;;4880458;29;20400;-84
2022/01/28 02:24:33;;;;;;;191.88;77.15;;;;;;;;;;4880237;29;20060;-82
2022/01/28 02:27:18;;;;;;;146.35;62.90;;;;;;;;;;4879951;29;20045;-82
2022/01/28 02:30:06;;;;;;;161.38;63.85;;;;;;;;;;4886105;29;20053;-83
2022/01/28 02:32:57;;;;;;;154.43;62.35;;;;;;;;;;4880046;29;20049;-83
2022/01/28 02:35:43;;;;;;;146.55;61.20;;;;;;;;;;4880094;29;20044;-84
2022/01/28 02:38:29;;;;;;;151.77;62.47;;;;;;;;;;4880255;29;20052;-83
2022/01/28 02:41:15;;;;;;;156.13;60.97;;;;;;;;;;4885900;29;20052;-83
2022/01/28 02:44:25;;;;;;;186.80;73.63;;;;;;;;;;4884931;29;20401;-83
2022/01/28 02:47:15;;;;;;;201.00;82.25;;;;;;;;;;4882318;29;20049;-84
2022/01/28 02:50:02;;;;;;;186.15;78.03;;;;;;;;;;4872699;29;20060;-83
2022/01/28 02:53:01;;;;;;;216.15;89.65;;;;;;;;;;4880001;29;20486;-84
2022/01/28 02:55:47;;;;;;;222.18;88.00;;;;;;;;;;4879792;29;20060;-81
2022/01/28 02:58:33;;;;;;;202.75;88.13;;;;;;;;;;4879849;29;20386;-84
2022/01/28 03:01:19;;;;;;;206.85;91.20;;;;;;;;;;4878930;29;20404;-84
2022/01/28 03:04:06;;;;;;;199.98;88.95;;;;;;;;;;4880303;29;20052;-82
2022/01/28 03:06:51;;;;;;;195.77;88.20;;;;;;;;;;4885190;29;20053;-85
2022/01/28 03:09:51;;;;;;;190.15;83.60;;;;;;;;;;4879746;29;20045;-83
2022/01/28 03:13:01;;;;;;;200.30;86.78;;;;;;;;;;4878552;29;20043;-81
2022/01/28 03:15:45;;;;;;;217.20;96.57;;;;;;;;;;4885012;29;20060;-84
2022/01/28 03:18:41;;;;;;;265.52;112.65;;;;;;;;;;4886120;29;20053;-82
2022/01/28 03:24:15;;;;;;;293.73;129.52;;;;;;;;;;4880000;29;20053;-84
2022/01/28 03:27:07;;;;;;;291.13;125.28;;;;;;;;;;4879594;29;20041;-82
2022/01/28 03:29:52;;;;;;;294.00;124.43;;;;;;;;;;4879419;29;20049;-85
2022/01/28 03:32:37;;;;;;;283.27;119.10;;;;;;;;;;4879828;29;20045;-81
2022/01/28 03:35:23;;;;;;;338.52;143.40;;;;;;;;;;4881757;29;20049;-81
2022/01/28 03:38:12;;;;;;;286.10;124.65;;;;;;;;;;4883428;29;20378;-82
2022/01/28 03:40:57;;;;;;;296.17;129.00;;;;;;;;;;4890382;29;20076;-83
2022/01/28 03:43:45;;;;;;;297.85;128.65;;;;;;;;;;4884004;29;20049;-83
2022/01/28 03:46:30;;;;;;;284.92;122.45;;;;;;;;;;4884831;29;20061;-81
2022/01/28 03:49:16;;;;;;;261.17;117.40;;;;;;;;;;4885183;29;20049;-83
2022/01/28 03:52:02;;;;;;;250.05;107.72;;;;;;;;;;4885185;29;20485;-81
2022/01/28 03:54:47;;;;;;;250.98;105.45;;;;;;;;;;4898539;29;20378;-83
2022/01/28 03:57:33;;;;;;;289.27;124.28;;;;;;;;;;4906792;29;20045;-83
2022/01/28 04:00:19;;;;;;;237.15;102.97;;;;;;;;;;4908775;29;20057;-79
2022/01/28 04:11:58;;;;;;;216.02;87.97;;;;;;;;;;4890478;29;20044;-83
2022/01/28 04:17:55;;;;;;;190.07;77.05;;;;;;;;;;4889683;29;20053;-81
2022/01/28 04:20:40;;;;;;;195.73;85.63;;;;;;;;;;4906511;29;20037;-79
2022/01/28 04:23:26;;;;;;;190.43;80.95;;;;;;;;;;4906203;29;20057;-80
2022/01/28 04:26:11;;;;;;;185.05;77.20;;;;;;;;;;4898757;29;20025;-82
2022/01/28 04:28:57;;;;;;;177.13;78.50;;;;;;;;;;4899265;29;20057;-82
2022/01/28 04:31:46;;;;;;;162.30;69.50;;;;;;;;;;4891636;29;20048;-80
2022/01/28 04:34:32;;;;;;;204.25;87.85;;;;;;;;;;4874642;29;20049;-80
2022/01/28 04:37:29;;;;;;;216.63;88.55;;;;;;;;;;4893623;29;20052;-84
2022/01/28 04:40:27;;;;;;;218.15;91.53;;;;;;;;;;4906603;29;20052;-84
2022/01/28 04:43:22;;;;;;;223.57;97.20;;;;;;;;;;4908446;29;20049;-82
2022/01/28 04:46:21;;;;;;;224.10;96.15;;;;;;;;;;4889041;29;20061;-83
2022/01/28 04:55:16;;;;;;;252.70;103.78;;;;;;;;;;4855362;29;20061;-83
2022/01/28 04:58:23;;;;;;;283.83;119.25;;;;;;;;;;4869998;29;20045;-82
2022/01/28 05:28:29;;;;;;;190.88;83.05;;;;;;;;;;4870507;29;20457;-84
2022/01/28 05:31:18;;;;;;;207.50;89.00;;;;;;;;;;4868439;29;20049;-82
2022/01/28 05:34:03;;;;;;;202.32;80.70;;;;;;;;;;4887005;29;20485;-83
2022/01/28 05:36:49;;;;;;;172.30;70.95;;;;;;;;;;4879024;29;20057;-84
2022/01/28 05:39:35;;;;;;;183.45;72.80;;;;;;;;;;4868661;29;20401;-86
2022/01/28 05:42:21;;;;;;;134.60;55.25;;;;;;;;;;4870370;29;20053;-84
2022/01/28 05:45:07;;;;;;;198.18;84.68;;;;;;;;;;4897465;29;20041;-82
2022/01/28 05:47:52;;;;;;;197.32;83.85;;;;;;;;;;4900094;29;20044;-84
2022/01/28 05:50:38;;;;;;;189.68;80.97;;;;;;;;;;4898891;29;20048;-83
2022/01/28 05:53:23;;;;;;;203.85;83.85;;;;;;;;;;4898669;29;20041;-82
2022/01/28 05:56:09;;;;;;;168.32;68.22;;;;;;;;;;4904454;29;20053;-80
2022/01/28 05:58:54;;;;;;;213.65;86.32;;;;;;;;;;4898383;29;20048;-84
2022/01/28 06:01:39;;;;;;;225.40;95.13;;;;;;;;;;4899376;29;20053;-80
2022/01/28 06:04:25;;;;;;;227.60;96.35;;;;;;;;;;4905193;29;20044;-84
2022/01/28 06:07:10;;;;;;;235.75;94.65;;;;;;;;;;4899873;29;20057;-85
2022/01/28 06:09:56;;;;;;;192.88;85.82;;;;;;;;;;4899497;29;20504;-86
2022/01/28 06:12:44;;;;;;;166.05;74.05;;;;;;;;;;4899984;29;20045;-85
2022/01/28 06:15:29;;;;;;;206.38;81.28;;;;;;;;;;4899898;29;20048;-83
2022/01/28 06:18:14;;;;;;;172.10;74.72;;;;;;;;;;4899420;29;20074;-83
2022/01/28 06:21:00;;;;;;;155.88;63.90;;;;;;;;;;4899718;29;20048;-84
2022/01/28 06:23:46;;;;;;;254.50;103.63;;;;;;;;;;4898964;29;20048;-82
2022/01/28 06:26:31;;;;;;;302.48;128.10;;;;;;;;;;4899493;29;20365;-84
2022/01/28 06:29:17;;;;;;;293.48;131.05;;;;;;;;;;4899707;29;20044;-84
2022/01/28 06:32:03;;;;;;;322.55;146.38;;;;;;;;;;4898442;29;20041;-85
2022/01/28 06:34:48;;;;;;;290.45;131.10;;;;;;;;;;4899233;29;20457;-83
2022/01/28 06:37:39;;;;;;;282.25;125.03;;;;;;;;;;4898860;29;20044;-86
2022/01/28 06:40:25;;;;;;;234.77;105.57;;;;;;;;;;4899657;29;20053;-84
2022/01/28 06:43:12;;;;;;;292.33;130.23;;;;;;;;;;4892311;29;20053;-84
2022/01/28 06:45:58;;;;;;;348.23;152.75;;;;;;;;;;4899298;29;20356;-84
2022/01/28 06:48:43;;;;;;;409.98;199.18;;;;;;;;;;4908334;29;20052;-86
2022/01/28 06:51:29;;;;;;;335.88;154.55;;;;;;;;;;4900272;29;20380;-85
2022/01/28 06:54:14;;;;;;;384.20;165.75;;;;;;;;;;4900939;29;20060;-85
2022/01/28 06:57:00;;;;;;;333.77;150.55;;;;;;;;;;4900906;29;20480;-85
2022/01/28 06:59:45;;;;;;;194.65;83.95;;;;;;;;;;4900188;29;20048;-86
2022/01/28 07:02:31;;;;;;;179.60;77.57;;;;;;;;;;4900504;29;20050;-86
2022/01/28 07:05:16;;;;;;;242.45;116.18;;;;;;;;;;4901244;29;20053;-86
2022/01/28 07:08:03;;;;;;;233.45;109.15;;;;;;;;;;4901608;29;20044;-87
2022/01/28 07:10:49;;;;;;;236.32;109.95;;;;;;;;;;4904848;29;20044;-85
2022/01/28 07:13:34;;;;;;;272.05;125.65;;;;;;;;;;4907939;29;20049;-87
2022/01/28 07:16:20;;;;;;;299.60;149.27;;;;;;;;;;4895535;29;20048;-87
2022/01/28 07:19:08;;;;;;;276.65;132.60;;;;;;;;;;4918882;29;20053;-82
2022/01/28 07:22:00;;;;;;;263.88;125.38;;;;;;;;;;4907440;29;20052;-87
2022/01/28 07:24:45;;;;;;;279.83;130.70;;;;;;;;;;4907596;29;20052;-85
2022/01/28 07:27:30;;;;;;;288.90;130.70;;;;;;;;;;4903006;29;20045;-84
2022/01/28 07:30:16;;;;;;;260.00;124.55;;;;;;;;;;4904052;29;20053;-87
2022/01/28 07:33:05;;;;;;;268.77;126.53;;;;;;;;;;4902654;29;20040;-89
2022/01/28 07:35:50;;;;;;;309.60;139.45;;;;;;;;;;4902171;29;20488;-87
2022/01/28 07:38:35;;;;;;;218.60;100.47;;;;;;;;;;4902487;29;20040;-87
2022/01/28 07:41:22;;;;;;;180.98;82.93;;;;;;;;;;4902447;29;20052;-84
2022/01/28 07:44:08;;;;;;;183.07;82.38;;;;;;;;;;4903452;29;20484;-87
2022/01/28 07:46:54;;;;;;;169.23;76.25;;;;;;;;;;4887204;29;20048;-88
2022/01/28 07:49:40;;;;;;;148.35;65.32;;;;;;;;;;4901673;29;20042;-84
2022/01/28 07:52:25;;;;;;;140.00;63.92;;;;;;;;;;4902425;29;20492;-86
2022/01/28 07:55:13;;;;;;;151.88;67.80;;;;;;;;;;4901434;29;20041;-84
2022/01/28 07:57:58;;;;;;;155.77;71.20;;;;;;;;;;4901215;29;20036;-84
2022/01/28 08:00:43;;;;;;;175.48;83.43;;;;;;;;;;4900491;29;20045;-85
2022/01/28 08:03:28;;;;;;;187.90;90.40;;;;;;;;;;4901151;29;20496;-86
2022/01/28 08:06:13;;;;;;;191.43;86.70;;;;;;;;;;4901422;29;20044;-85
2022/01/28 08:08:59;;;;;;;213.68;103.53;;;;;;;;;;4904882;29;20056;-83
2022/01/28 08:11:45;;;;;;;221.07;101.25;;;;;;;;;;4901292;29;20049;-84
2022/01/28 08:14:33;;;;;;;199.18;90.05;;;;;;;;;;4901775;29;20044;-84
2022/01/28 08:17:17;;;;;;;171.63;84.22;;;;;;;;;;4907668;29;20480;-85
2022/01/28 08:20:03;;;;;;;185.38;85.18;;;;;;;;;;4901744;29;20045;-83
2022/01/28 08:22:54;;;;;;;184.73;88.35;;;;;;;;;;4900170;29;20053;-84
2022/01/28 08:25:40;;;;;;;175.55;80.40;;;;;;;;;;4901310;29;20507;-84
2022/01/28 08:28:25;;;;;;;180.32;84.82;;;;;;;;;;4901435;29;20404;-84
2022/01/28 08:31:11;;;;;;;205.10;97.65;;;;;;;;;;4901186;29;20040;-84
2022/01/28 08:33:56;;;;;;;232.88;117.70;;;;;;;;;;4901007;29;20045;-83
2022/01/28 08:36:42;;;;;;;234.10;119.22;;;;;;;;;;4902264;29;20045;-84
2022/01/28 08:39:27;;;;;;;286.92;134.63;;;;;;;;;;4902782;29;20500;-85
2022/01/28 08:42:14;;;;;;;282.52;139.75;;;;;;;;;;4902303;29;20056;-84
2022/01/28 08:44:59;;;;;;;259.80;129.73;;;;;;;;;;4908099;29;20052;-86
2022/01/28 08:47:46;;;;;;;246.82;123.95;;;;;;;;;;4902588;29;20056;-85
2022/01/28 08:50:31;;;;;;;245.63;124.10;;;;;;;;;;4908779;29;20048;-85
2022/01/28 08:53:16;;;;;;;262.55;123.97;;;;;;;;;;4901742;29;20053;-86
2022/01/28 08:56:02;;;;;;;263.60;121.25;;;;;;;;;;4901291;29;20052;-83
2022/01/28 08:58:47;;;;;;;250.65;122.72;;;;;;;;;;4906702;29;20044;-86
2022/01/28 09:01:33;;;;;;;258.60;128.85;;;;;;;;;;4898743;29;20053;-85
2022/01/28 09:04:19;;;;;;;253.25;126.50;;;;;;;;;;4872634;29;20404;-85
2022/01/28 09:07:05;;;;;;;214.10;109.70;;;;;;;;;;4881640;29;20048;-83
2022/01/28 09:09:52;;;;;;;261.83;126.22;;;;;;;;;;4874599;29;20049;-83
2022/01/28 09:12:46;;;;;;;288.55;136.75;;;;;;;;;;4874884;29;20049;-83
2022/01/28 09:15:34;;;;;;;303.60;146.10;;;;;;;;;;4883867;29;20144;-83
2022/01/28 09:18:19;;;;;;;326.40;162.95;;;;;;;;;;4882031;29;20037;-83
2022/01/28 09:21:05;;;;;;;294.70;140.93;;;;;;;;;;4881601;29;20045;-82
2022/01/28 09:23:51;;;;;;;259.02;128.50;;;;;;;;;;4883228;29;20451;-80
2022/01/28 09:26:37;;;;;;;267.73;132.20;;;;;;;;;;4887989;29;20044;-83
2022/01/28 09:29:22;;;;;;;293.80;150.25;;;;;;;;;;4882234;29;20146;-82
2022/01/28 09:32:08;;;;;;;296.30;149.85;;;;;;;;;;4881110;29;20045;-81
2022/01/28 09:34:53;;;;;;;262.88;131.10;;;;;;;;;;4881214;29;20049;-83
2022/01/28 09:37:39;;;;;;;234.38;114.07;;;;;;;;;;4881395;29;20508;-83
2022/01/28 09:40:25;;;;;;;188.57;90.28;;;;;;;;;;4880981;29;20044;-82
2022/01/28 09:43:10;;;;;;;130.93;59.67;;;;;;;;;;4881737;29;20057;-82
2022/01/28 09:45:56;;;;;;;138.05;57.55;;;;;;;;;;4883562;29;21083;-81
2022/01/28 09:48:44;;;;;;;127.50;56.97;;;;;;;;;;4888351;29;20057;-81
2022/01/28 09:51:30;;;;;;;140.63;66.53;;;;;;;;;;4881277;29;20397;-82
2022/01/28 09:54:16;;;;;;;147.68;71.65;;;;;;;;;;4887644;29;20044;-83
2022/01/28 09:57:03;;;;;;;160.27;77.28;;;;;;;;;;4881165;29;20045;-84
2022/01/28 09:59:49;;;;;;;171.43;82.95;;;;;;;;;;4872662;29;20049;-80
2022/01/28 10:02:47;;;;;;;169.27;78.30;;;;;;;;;;4881142;29;20045;-82
2022/01/28 10:05:34;;;;;;;184.05;91.53;;;;;;;;;;4884312;29;20052;-83
2022/01/28 10:08:26;;;;;;;170.43;83.20;;;;;;;;;;4884651;29;20048;-80
2022/01/28 10:11:16;;;;;;;137.50;66.07;;;;;;;;;;4885529;29;20056;-79
2022/01/28 10:14:11;;;;;;;182.10;89.90;;;;;;;;;;4884403;29;20053;-83
2022/01/28 10:17:01;;;;;;;190.25;95.45;;;;;;;;;;4874056;29;20057;-84
2022/01/28 10:19:46;;;;;;;210.07;106.78;;;;;;;;;;4880984;29;20045;-81
2022/01/28 10:22:32;;;;;;;213.05;112.35;;;;;;;;;;4878891;29;20057;-81
2022/01/28 10:25:36;;;;;;;233.00;108.97;;;;;;;;;;4885991;29;20049;-80
2022/01/28 10:28:23;;;;;;;234.82;112.22;;;;;;;;;;4880529;29;20147;-82
2022/01/28 10:31:08;;;;;;;232.43;111.55;;;;;;;;;;4880366;29;20049;-81
2022/01/28 10:34:17;;;;;;;218.18;105.13;;;;;;;;;;4879872;29;20044;-81
2022/01/28 10:37:18;;;;;;;238.82;120.72;;;;;;;;;;4881133;29;20053;-81
2022/01/28 10:40:12;;;;;;;180.07;83.70;;;;;;;;;;4880635;29;20053;-80
2022/01/28 10:42:57;;;;;;;169.82;79.63;;;;;;;;;;4879989;29;20049;-83
2022/01/28 10:45:44;;;;;;;208.70;102.80;;;;;;;;;;4879946;29;20045;-82
2022/01/28 10:48:30;;;;;;;237.88;118.85;;;;;;;;;;4879844;29;20053;-82
2022/01/28 10:51:18;;;;;;;240.65;120.63;;;;;;;;;;4886468;29;20053;-81
2022/01/28 10:54:06;;;;;;;220.45;110.32;;;;;;;;;;4879852;29;20049;-82
2022/01/28 10:56:57;;;;;;;244.05;124.10;;;;;;;;;;4886420;29;20504;-81
2022/01/28 10:59:42;;;;;;;292.88;150.10;;;;;;;;;;4881122;29;20053;-83
2022/01/28 11:02:29;;;;;;;267.63;135.88;;;;;;;;;;4886485;29;20500;-82
2022/01/28 11:05:15;;;;;;;208.05;100.93;;;;;;;;;;4880735;29;20057;-82
2022/01/28 11:08:04;;;;;;;159.65;72.65;;;;;;;;;;4883628;29;20053;-83
2022/01/28 11:10:50;;;;;;;196.23;88.55;;;;;;;;;;4890057;29;20053;-82
2022/01/28 11:13:37;;;;;;;223.75;117.20;;;;;;;;;;4883741;29;20396;-84
2022/01/28 11:16:22;;;;;;;224.98;117.63;;;;;;;;;;4884316;29;20049;-83
2022/01/28 11:19:10;;;;;;;215.35;110.50;;;;;;;;;;4884423;29;20049;-82
2022/01/28 11:22:34;;;;;;;184.65;89.50;;;;;;;;;;4883187;29;20386;-82
2022/01/28 11:25:46;;;;;;;172.27;86.13;;;;;;;;;;4883310;29;20049;-82
2022/01/28 11:29:02;;;;;;;157.25;76.20;;;;;;;;;;4882062;29;20049;-81
2022/01/28 11:31:50;;;;;;;177.63;86.20;;;;;;;;;;4889516;29;20048;-80
2022/01/28 11:34:36;;;;;;;265.08;119.22;;;;;;;;;;4890106;29;20048;-80
2022/01/28 11:37:29;;;;;;;256.83;117.70;;;;;;;;;;4890561;29;20488;-80
2022/01/28 11:40:16;;;;;;;169.00;80.90;;;;;;;;;;4884606;29;20045;-81
2022/01/28 11:43:24;;;;;;;141.02;69.35;;;;;;;;;;4884370;29;20048;-81
2022/01/28 11:46:19;;;;;;;141.85;68.30;;;;;;;;;;4885296;29;20049;-82
2022/01/28 11:49:07;;;;;;;161.35;82.07;;;;;;;;;;4890055;29;20473;-81
2022/01/28 11:51:53;;;;;;;117.07;54.33;;;;;;;;;;4882776;29;20041;-80
2022/01/28 11:54:38;;;;;;;114.97;54.60;;;;;;;;;;4888962;29;20408;-81
2022/01/28 11:57:26;;;;;;;166.68;77.93;;;;;;;;;;4888823;29;20061;-79
2022/01/28 12:00:20;;;;;;;127.97;58.25;;;;;;;;;;4888783;29;20429;-83
2022/01/28 12:03:22;;;;;;;168.35;77.45;;;;;;;;;;4882044;29;20057;-82
2022/01/28 12:06:08;;;;;;;121.05;57.00;;;;;;;;;;4882716;29;20408;-82
2022/01/28 12:08:54;;;;;;;142.23;67.63;;;;;;;;;;4888578;29;20069;-81
2022/01/28 12:11:44;;;;;;;142.38;68.18;;;;;;;;;;4882208;29;20484;-82
2022/01/28 12:14:57;;;;;;;148.02;74.75;;;;;;;;;;4882524;29;20057;-81
2022/01/28 12:17:46;;;;;;;144.07;68.68;;;;;;;;;;4881215;29;20053;-81
2022/01/28 12:20:43;;;;;;;145.80;71.78;;;;;;;;;;4868400;29;20056;-80
2022/01/28 12:23:29;;;;;;;142.55;66.45;;;;;;;;;;4882635;29;20049;-80
2022/01/28 12:26:17;;;;;;;137.00;69.57;;;;;;;;;;4888472;29;20053;-82
2022/01/28 12:29:03;;;;;;;144.35;69.28;;;;;;;;;;4882431;29;20056;-81
2022/01/28 12:31:56;;;;;;;160.30;80.03;;;;;;;;;;4874207;29;20049;-81
2022/01/28 12:34:46;;;;;;;221.63;115.30;;;;;;;;;;4888545;29;20481;-80
2022/01/28 12:37:37;;;;;;;235.55;119.25;;;;;;;;;;4888863;29;20430;-80
2022/01/28 12:40:28;;;;;;;182.43;98.50;;;;;;;;;;4888113;29;20052;-82
2022/01/28 12:43:18;;;;;;;178.50;90.20;;;;;;;;;;4888180;29;20057;-82
2022/01/28 12:46:11;;;;;;;157.48;73.65;;;;;;;;;;4887051;29;20053;-82
2022/01/28 12:48:59;;;;;;;126.82;61.33;;;;;;;;;;4887881;29;20052;-82
2022/01/28 12:51:43;;;;;;;146.90;73.05;;;;;;;;;;4888381;29;20056;-81
2022/01/28 12:54:39;;;;;;;135.90;62.78;;;;;;;;;;4887816;29;20045;-81
2022/01/28 12:57:25;;;;;;;135.43;66.38;;;;;;;;;;4888251;29;20489;-80
2022/01/28 13:00:12;;;;;;;158.63;75.95;;;;;;;;;;4891830;29;20041;-82
2022/01/28 13:02:57;;;;;;;340.25;153.05;;;;;;;;;;4891973;29;20057;-81
2022/01/28 13:05:53;;;;;;;159.55;73.15;;;;;;;;;;4893536;29;20501;-79
2022/01/28 13:08:42;;;;;;;117.22;57.13;;;;;;;;;;4874075;29;20045;-81
2022/01/28 13:11:28;;;;;;;165.38;74.63;;;;;;;;;;4887432;29;20049;-79
2022/01/28 13:14:20;;;;;;;182.27;85.40;;;;;;;;;;4873030;29;20057;-80
2022/01/28 13:17:07;;;;;;;164.75;80.05;;;;;;;;;;4881202;29;20049;-80
2022/01/28 13:19:58;;;;;;;136.85;71.40;;;;;;;;;;4887416;29;20045;-81
2022/01/28 13:22:50;;;;;;;144.20;73.28;;;;;;;;;;4887393;29;20057;-81
2022/01/28 13:25:36;;;;;;;158.18;76.03;;;;;;;;;;4881080;29;20048;-81
2022/01/28 13:28:22;;;;;;;139.95;67.45;;;;;;;;;;4886796;29;20049;-82
2022/01/28 13:31:07;;;;;;;122.47;61.65;;;;;;;;;;4867408;29;20412;-83
2022/01/28 13:34:00;;;;;;;99.35;49.88;;;;;;;;;;4880792;29;20049;-82
2022/01/28 13:36:50;;;;;;;113.03;56.20;;;;;;;;;;4881167;29;20045;-81
2022/01/28 13:39:42;;;;;;;124.88;59.92;;;;;;;;;;4887026;29;20057;-81
2022/01/28 13:42:27;;;;;;;155.05;78.95;;;;;;;;;;4887464;29;20401;-81
2022/01/28 13:45:15;;;;;;;163.57;85.13;;;;;;;;;;4887179;29;20045;-82
2022/01/28 13:48:03;;;;;;;201.98;105.93;;;;;;;;;;4881368;29;20061;-81
2022/01/28 13:50:53;;;;;;;169.40;87.78;;;;;;;;;;4880787;29;20408;-83
2022/01/28 13:56:48;;;;;;;188.30;93.43;;;;;;;;;;4880590;29;20049;-83
2022/01/28 13:59:35;;;;;;;171.23;88.47;;;;;;;;;;4886539;29;20044;-82
2022/01/28 14:02:21;;;;;;;166.57;81.72;;;;;;;;;;4880447;29;20060;-82
2022/01/28 14:05:07;;;;;;;134.60;64.75;;;;;;;;;;4880540;29;20049;-82
2022/01/28 14:07:53;;;;;;;148.43;69.30;;;;;;;;;;4886796;29;20053;-82
2022/01/28 14:10:38;;;;;;;153.80;77.78;;;;;;;;;;4866373;29;20493;-83
2022/01/28 14:13:24;;;;;;;167.55;80.85;;;;;;;;;;4866655;29;20053;-82
2022/01/28 14:16:15;;;;;;;150.98;74.40;;;;;;;;;;4866086;29;20056;-82
2022/01/28 14:19:00;;;;;;;146.68;75.45;;;;;;;;;;4886847;29;20044;-81
2022/01/28 14:21:47;;;;;;;179.40;94.28;;;;;;;;;;4880741;29;20045;-82
2022/01/28 14:24:34;;;;;;;140.52;73.15;;;;;;;;;;4880729;29;20488;-82
2022/01/28 14:30:20;;;;;;;143.40;76.65;;;;;;;;;;4879628;29;20057;-83
2022/01/28 14:33:06;;;;;;;133.25;69.20;;;;;;;;;;4879952;29;20045;-82
2022/01/28 14:35:52;;;;;;;141.35;72.35;;;;;;;;;;4872427;29;20057;-82
2022/01/28 14:38:37;;;;;;;154.57;77.28;;;;;;;;;;4886317;29;20052;-83
2022/01/28 14:41:23;;;;;;;150.35;78.70;;;;;;;;;;4879526;29;20045;-83
2022/01/28 14:44:09;;;;;;;167.70;95.18;;;;;;;;;;4879909;29;20492;-83
2022/01/28 14:46:54;;;;;;;188.60;101.45;;;;;;;;;;4880667;29;20053;-81
2022/01/28 14:49:39;;;;;;;209.38;111.15;;;;;;;;;;4879668;29;20049;-82
2022/01/28 14:52:29;;;;;;;216.15;111.47;;;;;;;;;;4886015;29;20049;-82
2022/01/28 14:55:14;;;;;;;199.73;102.93;;;;;;;;;;4871812;29;20064;-81
2022/01/28 14:57:59;;;;;;;192.27;96.03;;;;;;;;;;4879725;29;20053;-82
2022/01/28 15:00:45;;;;;;;213.07;106.55;;;;;;;;;;4879596;29;20068;-82
2022/01/28 15:03:31;;;;;;;226.95;115.00;;;;;;;;;;4885052;29;20053;-83
2022/01/28 15:06:17;;;;;;;233.20;120.55;;;;;;;;;;4885249;29;20049;-83
2022/01/28 15:09:03;;;;;;;216.95;107.78;;;;;;;;;;4865167;29;20053;-82
2022/01/28 15:11:48;;;;;;;210.07;102.15;;;;;;;;;;4879162;29;20055;-81
2022/01/28 15:14:35;;;;;;;190.85;92.40;;;;;;;;;;4879530;29;20049;-82
2022/01/28 15:17:22;;;;;;;139.55;64.82;;;;;;;;;;4879669;29;20049;-82
2022/01/28 15:20:08;;;;;;;147.43;67.15;;;;;;;;;;4879448;29;20053;-82
2022/01/28 15:22:54;;;;;;;129.50;65.63;;;;;;;;;;4879982;29;20049;-82
2022/01/28 15:25:40;;;;;;;155.07;68.35;;;;;;;;;;4885591;29;20053;-82
2022/01/28 15:28:25;;;;;;;185.10;90.28;;;;;;;;;;4879465;29;20057;-82
2022/01/28 15:37:13;;;;;;;159.65;74.20;;;;;;;;;;4880223;29;20049;-82
2022/01/28 15:39:58;;;;;;;174.15;79.28;;;;;;;;;;4885891;29;20053;-83
2022/01/28 15:42:43;;;;;;;180.70;83.28;;;;;;;;;;4880321;29;20056;-83
2022/01/28 15:45:33;;;;;;;165.18;80.40;;;;;;;;;;4880278;29;20053;-83
2022/01/28 15:48:18;;;;;;;166.35;77.55;;;;;;;;;;4865025;29;20045;-83
2022/01/28 15:51:03;;;;;;;161.40;77.00;;;;;;;;;;4882427;29;20056;-82
2022/01/28 15:53:49;;;;;;;186.93;87.18;;;;;;;;;;4889686;29;20044;-81
2022/01/28 15:56:35;;;;;;;193.93;97.25;;;;;;;;;;4891099;29;20053;-78
2022/01/28 15:59:21;;;;;;;187.43;90.18;;;;;;;;;;4894703;29;20057;-82
2022/01/28 16:02:06;;;;;;;180.90;90.93;;;;;;;;;;4891986;29;20049;-83
2022/01/28 16:04:52;;;;;;;232.35;103.03;;;;;;;;;;4887603;29;20048;-82
2022/01/28 16:07:38;;;;;;;257.42;108.55;;;;;;;;;;4886102;29;20049;-82
2022/01/28 16:10:32;;;;;;;261.50;127.75;;;;;;;;;;4905148;29;20049;-82
2022/01/28 16:13:40;;;;;;;245.90;118.53;;;;;;;;;;4901573;29;20033;-81
2022/01/28 16:19:31;;;;;;;233.85;117.38;;;;;;;;;;4904028;29;20040;-80
2022/01/28 16:22:17;;;;;;;256.27;127.70;;;;;;;;;;4896626;29;20049;-82
2022/01/28 16:25:03;;;;;;;236.30;118.78;;;;;;;;;;4904849;29;20053;-81
2022/01/28 16:27:52;;;;;;;220.38;107.53;;;;;;;;;;4903194;29;20057;-78
2022/01/28 16:30:38;;;;;;;187.18;93.22;;;;;;;;;;4911023;29;20037;-82
2022/01/28 16:33:24;;;;;;;191.30;99.00;;;;;;;;;;4904242;29;20477;-81
2022/01/28 16:36:11;;;;;;;119.10;52.03;;;;;;;;;;4901833;29;20049;-83
2022/01/28 16:38:57;;;;;;;141.32;65.18;;;;;;;;;;4902032;29;20433;-82
2022/01/28 16:41:43;;;;;;;180.63;84.25;;;;;;;;;;4900446;29;20097;-82
2022/01/28 16:44:29;;;;;;;131.27;60.47;;;;;;;;;;4902693;29;20436;-82
2022/01/28 16:47:15;;;;;;;123.75;56.97;;;;;;;;;;4895086;29;20053;-82
2022/01/28 16:50:01;;;;;;;111.30;52.50;;;;;;;;;;4877616;29;20041;-81
2022/01/28 16:52:47;;;;;;;74.38;38.17;;;;;;;;;;4894212;29;20053;-83
2022/01/28 16:55:33;;;;;;;54.90;30.85;;;;;;;;;;4892735;29;20049;-82
2022/01/28 16:58:18;;;;;;;52.67;27.02;;;;;;;;;;4877439;29;20048;-83
2022/01/28 17:01:04;;;;;;;93.70;39.90;;;;;;;;;;4893738;29;20053;-82
2022/01/28 17:03:51;;;;;;;144.20;56.92;;;;;;;;;;4890569;29;20166;-81
2022/01/28 17:06:36;;;;;;;111.10;45.05;;;;;;;;;;4892614;29;20049;-82
2022/01/28 17:09:25;;;;;;;91.68;40.97;;;;;;;;;;4884961;29;20041;-81
2022/01/28 17:14:59;;;;;;;78.93;34.75;;;;;;;;;;4893225;29;20049;-82
2022/01/28 17:17:45;;;;;;;90.82;39.83;;;;;;;;;;4877530;29;20045;-85
2022/01/28 17:20:33;;;;;;;70.22;33.42;;;;;;;;;;4877410;29;20045;-84
2022/01/28 17:23:18;;;;;;;68.60;32.38;;;;;;;;;;4882030;29;20057;-82
2022/01/28 17:26:04;;;;;;;43.95;25.55;;;;;;;;;;4877491;29;20029;-81
2022/01/28 17:28:50;;;;;;;40.33;19.75;;;;;;;;;;4882781;29;20053;-82
2022/01/28 17:31:36;;;;;;;37.45;20.95;;;;;;;;;;4878763;29;20045;-81
2022/01/28 17:34:22;;;;;;;69.85;33.00;;;;;;;;;;4876455;29;20041;-82
2022/01/28 17:37:12;;;;;;;140.75;57.60;;;;;;;;;;4882383;29;20057;-81